Time;durP1;ratioP1;P1;durP2;ratioP2;P2;SDS_P1;SDS_P2;PMS_P1;PMS_P2;Temp;Humidity;BMP_temperature;BMP_pressure;BME280_temperature;BME280_humidity;BME280_pressure;Samples;Min_cycle;Max_cycle;Signal;HPM_P1;HPM_P2
2021/09/20 00:01:47;;;;;;;7.28;3.28;;;;;;;12.62;74.77;100889.88;5059704;28;20033;-79
2021/09/20 00:04:13;;;;;;;6.75;3.75;;;;;;;12.64;74.43;100888.13;5032126;28;20037;-79
2021/09/20 00:06:38;;;;;;;7.43;4.15;;;;;;;12.60;74.41;100895.22;5059458;28;20067;-78
2021/09/20 00:09:04;;;;;;;5.75;3.63;;;;;;;12.58;74.35;100897.00;5060640;28;20029;-79
2021/09/20 00:11:29;;;;;;;6.47;3.60;;;;;;;12.58;74.91;100889.06;5056865;28;20045;-79
2021/09/20 00:13:55;;;;;;;6.90;3.63;;;;;;;12.60;74.49;100887.28;5055563;28;20534;-80
2021/09/20 00:16:20;;;;;;;5.18;3.33;;;;;;;12.61;74.68;100890.78;5056837;28;20061;-78
2021/09/20 00:18:46;;;;;;;6.75;3.40;;;;;;;12.57;74.28;100884.63;5036871;28;20059;-80
2021/09/20 00:21:12;;;;;;;6.32;3.55;;;;;;;12.53;74.46;100888.22;5059030;28;20048;-78
2021/09/20 00:23:37;;;;;;;6.38;3.58;;;;;;;12.53;74.45;100888.22;5036062;28;20080;-78
2021/09/20 00:26:03;;;;;;;5.35;3.30;;;;;;;12.60;74.52;100889.03;5059512;28;20033;-79
2021/09/20 00:28:28;;;;;;;5.47;3.65;;;;;;;12.58;74.35;100882.88;5061355;28;20147;-79
2021/09/20 00:30:54;;;;;;;8.13;3.42;;;;;;;12.50;74.13;100889.13;5061292;28;20028;-79
2021/09/20 00:33:20;;;;;;;5.43;3.38;;;;;;;12.54;74.40;100894.38;5059950;28;20030;-79
2021/09/20 00:35:45;;;;;;;5.00;3.22;;;;;;;12.52;74.17;100886.44;5062345;28;20348;-79
2021/09/20 00:38:11;;;;;;;7.63;3.35;;;;;;;12.52;74.35;100882.91;5059719;28;20055;-79
2021/09/20 00:40:36;;;;;;;5.05;3.30;;;;;;;12.53;73.92;100888.22;5061755;28;20041;-79
2021/09/20 00:43:03;;;;;;;8.45;3.55;;;;;;;12.48;74.59;100888.25;5058723;28;20037;-79
2021/09/20 00:45:29;;;;;;;6.38;3.13;;;;;;;12.42;74.22;100895.38;5061428;28;20039;-78
2021/09/20 00:47:54;;;;;;;5.93;2.85;;;;;;;12.40;74.26;100890.06;5058522;28;20033;-80
2021/09/20 00:50:20;;;;;;;5.45;3.17;;;;;;;12.43;74.28;100895.34;5063113;28;20029;-79
2021/09/20 00:52:45;;;;;;;7.47;3.33;;;;;;;12.44;73.73;100891.81;5061255;28;20048;-79
2021/09/20 00:55:12;;;;;;;5.55;3.20;;;;;;;12.44;74.01;100881.25;5063434;28;20048;-80
2021/09/20 00:57:40;;;;;;;7.63;2.70;;;;;;;12.43;73.77;100882.09;5043222;28;20037;-80
2021/09/20 01:00:07;;;;;;;5.18;3.17;;;;;;;12.42;74.12;100884.78;5053799;28;20037;-80
2021/09/20 01:02:33;;;;;;;5.85;3.03;;;;;;;12.45;73.99;100884.75;5061202;28;20037;-79
2021/09/20 01:04:58;;;;;;;7.15;3.10;;;;;;;12.41;73.66;100881.22;5061392;28;20041;-80
2021/09/20 01:07:23;;;;;;;10.75;3.53;;;;;;;12.36;73.73;100871.56;5061243;28;20059;-79
2021/09/20 01:09:49;;;;;;;4.53;2.78;;;;;;;12.37;73.89;100883.94;5059981;28;20132;-79
2021/09/20 01:12:14;;;;;;;5.25;2.90;;;;;;;12.38;73.20;100877.75;5060870;28;20037;-79
2021/09/20 01:14:40;;;;;;;5.88;2.97;;;;;;;12.42;73.44;100879.50;5058594;28;20065;-80
2021/09/20 01:17:06;;;;;;;7.63;3.10;;;;;;;12.41;73.12;100877.72;5062490;28;20037;-80
2021/09/20 01:19:31;;;;;;;8.38;2.65;;;;;;;12.40;72.73;100886.56;5058406;28;20035;-80
2021/09/20 01:22:01;;;;;;;6.40;2.78;;;;;;;12.33;72.83;100880.41;5061965;28;20036;-79
2021/09/20 01:24:27;;;;;;;5.45;2.88;;;;;;;12.27;73.00;100886.66;5053649;28;20593;-79
2021/09/20 01:26:58;;;;;;;7.32;3.15;;;;;;;12.19;72.95;100880.53;5030961;28;20045;-79
2021/09/20 01:29:23;;;;;;;6.10;2.97;;;;;;;12.20;73.00;100884.91;5052465;28;20063;-78
2021/09/20 01:31:48;;;;;;;6.20;2.80;;;;;;;12.20;73.62;100884.91;5060012;28;20041;-78
2021/09/20 01:34:14;;;;;;;5.28;2.95;;;;;;;12.22;73.38;100883.16;5055188;28;20033;-79
2021/09/20 01:36:39;;;;;;;6.90;3.00;;;;;;;12.24;73.68;100891.97;5059706;28;20044;-78
2021/09/20 01:39:15;;;;;;;5.88;2.50;;;;;;;12.28;73.34;100883.09;5057227;28;20050;-79
2021/09/20 01:41:40;;;;;;;6.63;2.42;;;;;;;12.26;72.65;100884.00;5062618;28;20064;-80
2021/09/20 01:44:05;;;;;;;6.40;3.20;;;;;;;12.19;72.68;100893.75;5059392;28;20037;-79
2021/09/20 01:46:30;;;;;;;5.43;2.28;;;;;;;12.22;73.05;100899.03;5060536;28;20112;-79
2021/09/20 01:48:56;;;;;;;5.15;2.70;;;;;;;12.23;73.01;100895.47;5066331;28;20052;-79
2021/09/20 01:51:21;;;;;;;4.82;2.88;;;;;;;12.18;72.86;100884.06;5065251;28;20041;-79
2021/09/20 01:53:47;;;;;;;6.50;3.03;;;;;;;12.13;72.80;100888.53;5064479;28;20047;-79
2021/09/20 01:56:12;;;;;;;4.50;2.38;;;;;;;12.13;73.63;100890.25;5063989;28;20038;-79
2021/09/20 01:58:37;;;;;;;5.93;2.60;;;;;;;12.03;74.04;100886.81;5065958;28;20048;-79
2021/09/20 02:01:03;;;;;;;6.88;2.47;;;;;;;12.06;74.00;100882.38;5063090;28;20045;-79
2021/09/20 02:03:28;;;;;;;7.38;2.80;;;;;;;11.95;73.88;100886.88;5064900;28;20067;-79
2021/09/20 02:05:53;;;;;;;5.32;2.45;;;;;;;12.03;74.19;100892.13;5061780;28;20084;-79
2021/09/20 02:08:19;;;;;;;5.40;2.85;;;;;;;12.06;73.77;100886.81;5065096;28;20523;-79
2021/09/20 02:10:44;;;;;;;5.53;2.40;;;;;;;12.10;73.70;100893.81;5061179;28;20701;-79
2021/09/20 02:13:09;;;;;;;4.75;2.38;;;;;;;12.17;73.95;100894.66;5063565;28;20096;-79
2021/09/20 02:15:35;;;;;;;6.45;2.63;;;;;;;12.19;73.78;100893.75;5062374;28;20041;-79
2021/09/20 02:18:00;;;;;;;4.35;2.38;;;;;;;12.22;73.74;100899.03;5064530;28;20059;-79
2021/09/20 02:20:25;;;;;;;5.82;2.67;;;;;;;12.21;73.16;100901.72;5046043;28;20037;-79
2021/09/20 02:22:51;;;;;;;5.43;2.60;;;;;;;12.14;73.23;100899.97;5036220;28;20092;-80
2021/09/20 02:25:16;;;;;;;6.10;2.70;;;;;;;12.12;73.26;100901.75;5062169;28;20021;-78
2021/09/20 02:27:41;;;;;;;6.85;2.60;;;;;;;12.11;73.60;100905.28;5059576;28;20037;-79
2021/09/20 02:30:08;;;;;;;5.78;2.65;;;;;;;12.08;73.16;100900.91;5061623;28;20422;-79
2021/09/20 02:32:35;;;;;;;6.55;2.42;;;;;;;12.11;72.95;100900.88;5049622;28;20134;-78
2021/09/20 02:35:01;;;;;;;6.80;2.38;;;;;;;12.07;72.98;100899.13;5061756;28;20041;-79
2021/09/20 02:37:26;;;;;;;5.68;3.08;;;;;;;12.03;73.75;100906.22;5053652;28;20122;-78
2021/09/20 02:39:52;;;;;;;5.63;2.60;;;;;;;12.04;73.70;100907.09;5060819;28;20539;-79
2021/09/20 02:42:17;;;;;;;4.57;2.38;;;;;;;12.08;73.49;100906.19;5061208;28;20104;-79
2021/09/20 02:44:42;;;;;;;5.53;2.90;;;;;;;12.15;73.13;100902.59;5063669;28;20037;-79
2021/09/20 02:47:11;;;;;;;5.22;2.22;;;;;;;12.15;73.46;100905.25;5063097;28;20041;-78
2021/09/20 02:49:37;;;;;;;6.97;3.13;;;;;;;12.19;73.56;100903.47;5063243;28;20029;-78
2021/09/20 02:52:03;;;;;;;4.32;2.35;;;;;;;12.21;73.25;100912.28;5061469;28;20051;-79
2021/09/20 02:54:28;;;;;;;4.47;2.30;;;;;;;12.18;73.41;100912.28;5064752;28;20061;-79
2021/09/20 02:56:53;;;;;;;5.97;2.65;;;;;;;12.21;73.60;100904.34;5063647;28;20093;-79
2021/09/20 02:59:19;;;;;;;6.20;2.58;;;;;;;12.21;73.88;100899.94;5059878;28;20033;-79
2021/09/20 03:01:44;;;;;;;5.55;2.70;;;;;;;12.22;73.38;100906.97;5045912;28;20067;-79
2021/09/20 03:04:09;;;;;;;4.32;2.67;;;;;;;12.21;73.29;100907.00;5060184;28;20029;-78
2021/09/20 03:06:35;;;;;;;4.65;2.72;;;;;;;12.18;72.75;100905.25;5062249;28;20040;-79
2021/09/20 03:09:00;;;;;;;4.38;2.60;;;;;;;12.22;72.82;100912.25;5057108;28;20077;-79
2021/09/20 03:11:25;;;;;;;4.57;2.95;;;;;;;12.29;72.42;100915.75;5058193;28;20068;-79
2021/09/20 03:13:51;;;;;;;5.43;2.60;;;;;;;12.22;72.53;100917.56;5061097;28;20045;-78
2021/09/20 03:16:16;;;;;;;7.55;2.33;;;;;;;12.24;72.47;100914.91;5055516;28;20021;-79
2021/09/20 03:18:41;;;;;;;8.48;2.60;;;;;;;12.22;72.31;100920.19;5048994;28;20487;-79
2021/09/20 03:21:07;;;;;;;6.25;2.95;;;;;;;12.24;72.18;100913.13;5050235;28;20634;-78
2021/09/20 03:23:32;;;;;;;5.32;2.70;;;;;;;12.24;72.19;100923.72;5050590;28;20111;-79
2021/09/20 03:25:57;;;;;;;5.13;2.30;;;;;;;12.24;72.07;100923.72;5059370;28;20065;-79
2021/09/20 03:28:23;;;;;;;6.43;2.70;;;;;;;12.20;72.40;100927.25;5060066;28;20037;-78
2021/09/20 03:30:48;;;;;;;5.57;2.70;;;;;;;12.14;72.62;100929.09;5060882;28;20032;-78
2021/09/20 03:33:13;;;;;;;5.38;2.72;;;;;;;12.10;72.33;100927.31;5048220;28;20040;-78
2021/09/20 03:35:39;;;;;;;5.47;2.67;;;;;;;12.07;72.16;100936.16;5054441;28;20081;-79
2021/09/20 03:38:04;;;;;;;5.50;2.40;;;;;;;12.01;72.49;100929.16;5062454;28;20032;-78
2021/09/20 03:40:29;;;;;;;6.75;2.60;;;;;;;12.05;72.13;100932.66;5042400;28;20097;-80
2021/09/20 03:42:55;;;;;;;3.70;2.33;;;;;;;12.00;72.53;100937.09;5061090;28;20041;-79
2021/09/20 03:45:20;;;;;;;6.20;2.90;;;;;;;11.92;73.04;100941.53;5042339;28;20059;-80
2021/09/20 03:47:46;;;;;;;5.82;2.50;;;;;;;11.94;72.57;100939.75;5056718;28;20056;-78
2021/09/20 03:50:11;;;;;;;4.85;2.47;;;;;;;11.91;72.85;100948.59;5048493;28;20033;-79
2021/09/20 03:52:38;;;;;;;5.32;2.90;;;;;;;11.84;72.85;100939.81;5042289;28;20028;-79
2021/09/20 03:55:04;;;;;;;5.47;2.53;;;;;;;11.83;72.60;100940.66;5047207;28;20442;-79
2021/09/20 03:57:29;;;;;;;8.65;3.38;;;;;;;11.84;72.99;100941.53;5047642;28;20194;-79
2021/09/20 03:59:54;;;;;;;6.18;2.45;;;;;;;11.83;73.06;100948.59;5049451;28;20047;-79
2021/09/20 04:02:20;;;;;;;7.07;2.30;;;;;;;11.88;72.88;100945.09;5046485;28;20037;-79
2021/09/20 04:04:45;;;;;;;5.00;2.50;;;;;;;11.80;72.44;100943.31;5049586;28;20037;-78
2021/09/20 04:07:12;;;;;;;5.72;2.60;;;;;;;11.78;72.92;100949.50;5057124;28;20028;-79
2021/09/20 04:09:38;;;;;;;6.05;2.88;;;;;;;11.78;73.36;100953.03;5035834;28;20097;-79
2021/09/20 04:12:03;;;;;;;5.97;2.60;;;;;;;11.83;72.63;100953.88;5057899;28;20068;-78
2021/09/20 04:14:29;;;;;;;5.88;2.88;;;;;;;11.87;72.86;100960.09;5062285;28;20021;-80
2021/09/20 04:16:54;;;;;;;5.13;2.90;;;;;;;11.81;73.29;100955.66;5042035;28;20729;-79
2021/09/20 04:19:19;;;;;;;5.80;3.00;;;;;;;11.87;72.69;100959.19;5050412;28;20021;-78
2021/09/20 04:21:45;;;;;;;6.28;3.28;;;;;;;11.86;72.96;100958.31;5054397;28;20381;-79
2021/09/20 04:24:10;;;;;;;5.75;2.70;;;;;;;11.87;72.76;100965.38;5051339;28;20026;-78
2021/09/20 04:26:36;;;;;;;4.63;2.60;;;;;;;11.79;72.87;100957.44;5050422;28;20044;-79
2021/09/20 04:29:01;;;;;;;5.40;2.85;;;;;;;11.77;73.56;100968.91;5058168;28;20100;-79
2021/09/20 04:31:26;;;;;;;7.18;3.50;;;;;;;11.75;72.76;100963.63;5048658;28;20033;-79
2021/09/20 04:33:52;;;;;;;6.10;2.63;;;;;;;11.70;73.18;100968.03;5061474;28;20021;-78
2021/09/20 04:36:17;;;;;;;5.32;2.67;;;;;;;11.76;73.38;100972.44;5055640;28;20041;-78
2021/09/20 04:38:42;;;;;;;5.82;2.70;;;;;;;11.71;73.46;100969.81;5042497;28;20020;-79
2021/09/20 04:41:08;;;;;;;5.18;2.83;;;;;;;11.68;73.57;100976.88;5058865;28;20048;-79
2021/09/20 04:43:33;;;;;;;7.93;2.78;;;;;;;11.70;73.43;100977.75;5058299;28;20512;-79
2021/09/20 04:45:59;;;;;;;6.32;3.00;;;;;;;11.70;73.46;100978.63;5060052;28;20080;-79
2021/09/20 04:48:24;;;;;;;6.85;2.80;;;;;;;11.74;73.55;100979.50;5048147;28;20057;-78
2021/09/20 04:50:52;;;;;;;7.75;3.28;;;;;;;11.72;73.29;100984.78;5059971;28;20071;-79
2021/09/20 04:53:17;;;;;;;6.38;3.03;;;;;;;11.72;73.44;100986.56;5054705;28;20037;-79
2021/09/20 04:55:45;;;;;;;5.80;2.90;;;;;;;11.71;73.27;100993.63;5059796;28;20097;-79
2021/09/20 04:58:11;;;;;;;5.68;3.03;;;;;;;11.75;73.58;100994.47;5057720;28;20064;-79
2021/09/20 05:00:39;;;;;;;8.63;4.15;;;;;;;11.77;73.78;100996.25;5061360;28;20052;-79
2021/09/20 05:03:04;;;;;;;6.68;3.15;;;;;;;11.80;73.11;101004.16;5049622;28;20041;-79
2021/09/20 05:05:30;;;;;;;4.70;2.60;;;;;;;11.85;73.26;101005.00;5053729;28;20028;-79
2021/09/20 05:07:55;;;;;;;6.07;2.95;;;;;;;11.83;72.96;100997.97;5053474;28;20476;-78
2021/09/20 05:10:22;;;;;;;3.80;2.13;;;;;;;11.82;73.13;100999.75;5053906;28;20049;-79
2021/09/20 05:12:48;;;;;;;5.57;2.75;;;;;;;11.85;73.00;101002.38;5054034;28;20025;-78
2021/09/20 05:15:15;;;;;;;6.30;2.70;;;;;;;11.87;72.76;101002.41;5048123;28;20033;-78
2021/09/20 05:17:41;;;;;;;6.15;3.13;;;;;;;11.81;72.92;100997.97;5033552;28;20040;-79
2021/09/20 05:20:07;;;;;;;6.53;2.78;;;;;;;11.78;73.18;101008.56;5057557;28;20029;-79
2021/09/20 05:22:33;;;;;;;4.97;2.67;;;;;;;11.73;73.13;101004.19;5058321;28;20037;-78
2021/09/20 05:24:58;;;;;;;5.82;2.38;;;;;;;11.74;73.79;101011.25;5057379;28;20056;-79
2021/09/20 05:27:26;;;;;;;7.63;3.10;;;;;;;11.69;73.75;101005.97;5058410;28;20033;-79
2021/09/20 05:29:52;;;;;;;4.70;2.63;;;;;;;11.75;73.84;101013.88;5058756;28;20041;-78
2021/09/20 05:32:17;;;;;;;6.28;3.13;;;;;;;11.78;73.45;101012.97;5058723;28;20025;-79
2021/09/20 05:34:43;;;;;;;10.55;2.80;;;;;;;11.81;73.81;101011.19;5058220;28;20018;-79
2021/09/20 05:37:08;;;;;;;7.65;3.42;;;;;;;11.82;73.28;101018.25;5045360;28;20104;-79
2021/09/20 05:39:33;;;;;;;5.45;3.05;;;;;;;11.89;73.59;101023.53;5059396;28;20049;-78
2021/09/20 05:42:00;;;;;;;6.60;3.20;;;;;;;11.94;73.17;101029.69;5061780;28;20048;-79
2021/09/20 05:44:25;;;;;;;8.30;2.90;;;;;;;11.78;73.61;101024.44;5053507;28;20065;-79
2021/09/20 05:46:51;;;;;;;5.90;2.90;;;;;;;11.85;73.77;101026.19;5060593;28;20037;-78
2021/09/20 05:49:16;;;;;;;6.72;3.08;;;;;;;11.97;73.88;101029.69;5057677;28;20048;-79
2021/09/20 05:51:41;;;;;;;6.20;3.03;;;;;;;12.03;73.36;101030.56;5058955;28;20045;-79
2021/09/20 05:54:08;;;;;;;6.50;2.78;;;;;;;12.10;72.34;101036.69;5040727;28;20040;-78
2021/09/20 05:56:34;;;;;;;6.50;2.60;;;;;;;12.13;72.55;101036.69;5058362;28;20052;-78
2021/09/20 05:58:59;;;;;;;4.47;2.47;;;;;;;12.21;72.53;101039.31;5058211;28;20029;-79
2021/09/20 06:01:24;;;;;;;5.75;2.63;;;;;;;12.27;72.16;101033.97;5052118;28;20139;-80
2021/09/20 06:03:50;;;;;;;6.20;2.83;;;;;;;12.38;72.49;101036.56;5040164;28;20032;-80
2021/09/20 06:06:15;;;;;;;6.35;2.35;;;;;;;12.47;71.99;101042.69;5036466;28;20061;-80
2021/09/20 06:08:40;;;;;;;5.22;2.70;;;;;;;12.55;71.57;101039.09;5045580;28;20044;-80
2021/09/20 06:11:06;;;;;;;4.88;2.45;;;;;;;12.53;71.08;101041.78;5035741;28;20037;-80
2021/09/20 06:13:31;;;;;;;5.97;2.85;;;;;;;12.56;70.95;101039.09;5032435;28;20504;-80
2021/09/20 06:15:56;;;;;;;7.50;3.20;;;;;;;12.59;70.97;101041.72;5040478;28;20029;-80
2021/09/20 06:18:22;;;;;;;5.07;3.00;;;;;;;12.69;70.62;101047.84;5039585;28;20491;-81
2021/09/20 06:20:47;;;;;;;7.47;3.50;;;;;;;12.79;70.82;101032.78;5040037;28;20506;-81
2021/09/20 06:23:13;;;;;;;5.57;2.65;;;;;;;12.90;70.46;101041.53;5028459;28;20090;-80
2021/09/20 06:25:39;;;;;;;5.20;3.00;;;;;;;12.90;69.90;101042.38;5035805;28;20037;-79
2021/09/20 06:28:04;;;;;;;5.53;2.88;;;;;;;12.94;70.08;101049.44;5031205;28;20095;-81
2021/09/20 06:30:30;;;;;;;4.13;2.38;;;;;;;12.96;69.38;101048.53;5031397;28;20120;-81
2021/09/20 06:32:55;;;;;;;4.97;2.55;;;;;;;13.00;69.41;101043.22;5024936;28;20064;-80
2021/09/20 06:35:21;;;;;;;5.22;2.83;;;;;;;12.98;69.57;101050.28;5019724;28;20613;-81
2021/09/20 06:37:47;;;;;;;6.53;2.85;;;;;;;12.95;68.58;101047.66;5042472;28;20060;-81
2021/09/20 06:40:13;;;;;;;5.85;3.05;;;;;;;12.93;69.34;101052.09;5041750;28;20037;-79
2021/09/20 06:42:39;;;;;;;6.68;2.88;;;;;;;12.78;69.29;101052.19;5048900;28;20032;-81
2021/09/20 06:45:05;;;;;;;6.03;3.30;;;;;;;12.80;69.59;101055.72;5045528;28;20723;-80
2021/09/20 06:47:31;;;;;;;5.18;3.13;;;;;;;12.76;69.35;101053.97;5049051;28;20045;-80
2021/09/20 06:49:57;;;;;;;6.03;3.05;;;;;;;12.79;69.47;101048.69;5045800;28;20475;-80
2021/09/20 06:52:22;;;;;;;4.82;2.50;;;;;;;12.92;69.29;101045.03;5038226;28;20047;-82
2021/09/20 06:54:47;;;;;;;6.93;3.22;;;;;;;12.91;69.27;101048.56;5045148;28;20459;-81
2021/09/20 06:57:13;;;;;;;5.35;3.13;;;;;;;12.89;69.42;101048.59;5046901;28;20030;-81
2021/09/20 06:59:38;;;;;;;4.25;2.70;;;;;;;13.02;69.33;101052.03;5045590;28;20036;-81
2021/09/20 07:02:04;;;;;;;4.85;2.88;;;;;;;13.11;68.87;101057.25;5046602;28;20041;-80
2021/09/20 07:04:29;;;;;;;5.75;2.53;;;;;;;13.18;68.63;101063.38;5048205;28;20064;-81
2021/09/20 07:06:55;;;;;;;5.47;2.58;;;;;;;13.30;68.54;101063.28;5047808;28;20041;-79
2021/09/20 07:09:20;;;;;;;7.25;2.88;;;;;;;13.30;68.33;101063.28;5045280;28;20041;-81
2021/09/20 07:11:46;;;;;;;7.18;2.70;;;;;;;13.34;68.07;101064.16;5046877;28;20127;-81
2021/09/20 07:14:12;;;;;;;8.07;3.03;;;;;;;13.29;68.03;101061.53;5040266;28;20086;-81
2021/09/20 07:16:38;;;;;;;7.60;3.17;;;;;;;13.27;68.07;101073.06;5047714;28;20068;-80
2021/09/20 07:19:03;;;;;;;5.18;2.85;;;;;;;13.33;67.56;101075.63;5044430;28;20458;-81
2021/09/20 07:21:29;;;;;;;5.82;3.00;;;;;;;13.41;67.72;101076.44;5046528;28;20045;-81
2021/09/20 07:23:55;;;;;;;6.45;3.17;;;;;;;13.46;67.80;101074.63;5046791;28;20037;-81
2021/09/20 07:26:22;;;;;;;7.53;3.22;;;;;;;13.35;67.38;101076.50;5046260;28;20029;-80
2021/09/20 07:28:49;;;;;;;7.18;3.58;;;;;;;13.30;68.29;101083.63;5046466;28;20029;-80
2021/09/20 07:31:14;;;;;;;6.60;3.10;;;;;;;13.35;67.96;101082.69;5042516;28;20060;-80
2021/09/20 07:33:40;;;;;;;5.15;3.05;;;;;;;13.31;67.40;101090.69;5045839;28;20098;-80
2021/09/20 07:36:05;;;;;;;5.35;2.67;;;;;;;13.46;67.68;101087.03;5046910;28;20116;-80
2021/09/20 07:38:31;;;;;;;6.38;3.00;;;;;;;13.55;67.42;101093.13;5045265;28;20041;-81
2021/09/20 07:40:57;;;;;;;7.50;2.92;;;;;;;13.62;67.03;101093.06;5046955;28;20040;-81
2021/09/20 07:43:23;;;;;;;5.70;2.92;;;;;;;13.58;67.14;101094.88;5044323;28;20409;-79
2021/09/20 07:45:49;;;;;;;4.63;2.70;;;;;;;13.65;66.98;101100.97;5045767;28;20053;-79
2021/09/20 07:48:14;;;;;;;4.32;2.67;;;;;;;13.78;66.55;101103.50;5039213;28;20550;-79
2021/09/20 07:50:39;;;;;;;7.47;3.33;;;;;;;13.75;66.93;101105.28;5046775;28;20044;-79
2021/09/20 07:53:05;;;;;;;6.05;2.90;;;;;;;13.79;66.23;101101.72;5044219;28;20035;-79
2021/09/20 07:55:35;;;;;;;6.20;3.33;;;;;;;13.75;66.42;101102.66;5047463;28;20030;-79
2021/09/20 07:58:02;;;;;;;6.72;2.90;;;;;;;13.66;66.56;101108.06;5044824;28;20044;-79
2021/09/20 08:00:28;;;;;;;7.47;3.42;;;;;;;13.71;66.53;101108.91;5046199;28;20071;-79
2021/09/20 08:02:53;;;;;;;6.22;2.88;;;;;;;13.65;66.06;101115.13;5044018;28;20041;-79
2021/09/20 08:05:18;;;;;;;7.22;3.47;;;;;;;13.64;67.06;101120.44;5042585;28;20052;-79
2021/09/20 08:07:44;;;;;;;7.05;3.10;;;;;;;13.77;66.37;101122.09;5044795;28;20045;-79
2021/09/20 08:10:09;;;;;;;6.60;3.10;;;;;;;13.96;66.01;101120.13;5045378;28;20029;-79
2021/09/20 08:12:34;;;;;;;5.88;3.20;;;;;;;14.18;65.61;101118.13;5015016;28;20033;-79
2021/09/20 08:15:00;;;;;;;8.25;3.28;;;;;;;14.34;65.14;101111.72;5044464;28;20095;-80
2021/09/20 08:17:25;;;;;;;6.15;3.40;;;;;;;14.39;64.54;101114.31;5043672;28;20068;-79
2021/09/20 08:19:51;;;;;;;8.93;3.70;;;;;;;14.36;63.72;101117.91;5046547;28;20120;-80
2021/09/20 08:22:16;;;;;;;7.55;3.22;;;;;;;14.48;64.24;101117.72;5041337;28;20048;-79
2021/09/20 08:24:41;;;;;;;6.20;3.30;;;;;;;14.35;64.45;101110.81;5046233;28;20028;-79
2021/09/20 08:27:07;;;;;;;5.18;3.25;;;;;;;14.47;64.48;101117.75;5043288;28;20029;-79
2021/09/20 08:29:32;;;;;;;5.22;3.13;;;;;;;14.67;64.12;101120.16;5034575;28;20041;-79
2021/09/20 08:31:58;;;;;;;5.75;3.60;;;;;;;14.76;63.09;101122.72;5044321;28;20120;-80
2021/09/20 08:34:23;;;;;;;5.47;3.03;;;;;;;14.85;62.94;101122.56;5017958;28;20052;-79
2021/09/20 08:36:48;;;;;;;5.55;3.17;;;;;;;14.89;62.70;101134.91;5041114;28;20033;-79
2021/09/20 08:39:14;;;;;;;6.55;3.80;;;;;;;14.62;62.84;101130.00;5050134;28;20060;-80
2021/09/20 08:41:41;;;;;;;7.25;3.88;;;;;;;14.64;62.78;101136.16;5022247;28;20483;-80
2021/09/20 08:44:09;;;;;;;6.53;3.78;;;;;;;14.78;62.76;101131.53;5022925;28;20037;-79
2021/09/20 08:46:38;;;;;;;7.43;3.95;;;;;;;14.85;61.50;101130.53;5039653;28;20484;-80
2021/09/20 08:49:04;;;;;;;6.93;3.83;;;;;;;14.96;61.79;101130.41;5037337;28;20034;-80
2021/09/20 08:51:29;;;;;;;6.18;3.70;;;;;;;15.11;61.84;101134.59;5040125;28;20108;-80
2021/09/20 08:53:55;;;;;;;8.80;4.47;;;;;;;15.26;61.42;101134.38;5041411;28;20451;-80
2021/09/20 08:56:20;;;;;;;6.35;4.28;;;;;;;15.30;60.91;101136.09;5044752;28;20040;-80
2021/09/20 08:58:45;;;;;;;5.70;3.83;;;;;;;15.18;60.89;101136.28;5046980;28;20029;-80
2021/09/20 09:01:11;;;;;;;7.40;4.32;;;;;;;14.92;61.04;101139.31;5043769;28;20029;-80
2021/09/20 09:03:37;;;;;;;9.40;4.22;;;;;;;14.65;61.73;101146.78;5019632;28;20066;-80
2021/09/20 09:06:02;;;;;;;6.90;4.10;;;;;;;14.67;61.90;101146.72;5043035;28;20459;-80
2021/09/20 09:08:39;;;;;;;7.72;4.97;;;;;;;14.65;62.12;101149.44;5045346;28;20484;-79
2021/09/20 09:11:11;;;;;;;6.10;4.15;;;;;;;14.93;62.14;101145.50;5026037;28;20752;-80
2021/09/20 09:13:42;;;;;;;7.18;4.43;;;;;;;15.19;61.49;101142.47;5029633;28;20423;-80
2021/09/20 09:16:16;;;;;;;7.35;4.53;;;;;;;15.44;61.31;101151.81;5040434;28;20037;-80
2021/09/20 09:19:06;;;;;;;8.52;4.07;;;;;;;15.64;60.45;101150.59;5044746;28;20625;-80
2021/09/20 09:21:43;;;;;;;7.90;4.00;;;;;;;15.43;59.90;101146.50;5014031;28;20053;-80
2021/09/20 09:24:16;;;;;;;6.50;3.88;;;;;;;15.15;60.60;101146.97;5045647;28;20029;-79
2021/09/20 09:26:56;;;;;;;7.03;4.53;;;;;;;15.21;60.84;101149.50;5038184;28;20029;-80
2021/09/20 09:29:22;;;;;;;6.25;4.25;;;;;;;15.18;60.98;101144.25;5043377;28;20036;-80
2021/09/20 09:31:52;;;;;;;6.68;4.53;;;;;;;15.37;60.87;101149.28;5046167;28;20037;-80
2021/09/20 09:34:30;;;;;;;6.55;3.65;;;;;;;15.61;60.24;101134.69;5041684;28;20033;-80
2021/09/20 09:37:13;;;;;;;6.18;4.72;;;;;;;15.78;59.47;101144.16;5041385;28;20083;-80
2021/09/20 09:39:40;;;;;;;5.97;4.15;;;;;;;15.83;59.12;101151.19;5044065;28;20037;-80
2021/09/20 09:42:24;;;;;;;6.78;4.68;;;;;;;15.82;58.52;101152.09;5019793;28;20052;-80
2021/09/20 09:44:50;;;;;;;9.25;4.45;;;;;;;15.86;58.90;101143.16;5033631;28;20045;-80
2021/09/20 09:47:27;;;;;;;7.95;4.88;;;;;;;15.93;58.51;101143.00;5045561;28;20053;-80
2021/09/20 09:50:12;;;;;;;8.05;4.20;;;;;;;16.05;58.67;101149.88;5045164;28;20121;-80
2021/09/20 09:52:37;;;;;;;6.97;4.30;;;;;;;16.09;58.31;101143.59;5039047;28;20035;-80
2021/09/20 09:55:04;;;;;;;6.43;4.32;;;;;;;16.28;58.43;101151.22;5046054;28;20415;-80
2021/09/20 09:57:30;;;;;;;9.98;4.75;;;;;;;16.36;58.02;101155.50;5038460;28;20045;-80
2021/09/20 10:00:08;;;;;;;7.07;3.95;;;;;;;16.47;57.25;101160.59;5046221;28;20059;-80
2021/09/20 10:02:42;;;;;;;5.88;4.25;;;;;;;16.53;56.02;101157.81;5041454;28;20101;-79
2021/09/20 10:05:12;;;;;;;6.80;3.92;;;;;;;16.57;55.56;101146.19;5045575;28;20040;-80
2021/09/20 10:07:49;;;;;;;6.20;4.40;;;;;;;16.40;55.84;101159.84;5021405;28;20068;-77
2021/09/20 10:10:21;;;;;;;7.20;5.03;;;;;;;16.50;56.00;101149.88;5039953;28;20399;-79
2021/09/20 10:12:59;;;;;;;6.63;3.80;;;;;;;16.62;55.92;101149.63;5058036;28;20562;-80
2021/09/20 10:15:27;;;;;;;5.78;3.78;;;;;;;16.93;55.92;101146.31;5060696;28;20037;-79
2021/09/20 10:17:52;;;;;;;8.30;5.65;;;;;;;17.20;55.14;101146.59;5060437;28;20080;-80
2021/09/20 10:20:24;;;;;;;8.70;4.63;;;;;;;17.50;54.17;101142.28;5027634;28;20036;-80
2021/09/20 10:22:51;;;;;;;5.80;3.90;;;;;;;17.75;52.92;101139.88;5047706;28;20032;-81
2021/09/20 10:25:18;;;;;;;7.30;3.63;;;;;;;17.60;53.69;101134.94;5017059;28;20067;-80
2021/09/20 10:27:45;;;;;;;4.63;3.47;;;;;;;17.81;53.86;101137.06;5041891;28;20044;-80
2021/09/20 10:30:18;;;;;;;6.45;3.53;;;;;;;17.81;52.46;101139.72;5046155;28;20033;-79
2021/09/20 10:32:49;;;;;;;7.40;3.40;;;;;;;17.55;52.01;101134.16;5050370;28;20037;-80
2021/09/20 10:35:36;;;;;;;5.68;3.38;;;;;;;17.49;52.21;101136.06;5048151;28;20080;-81
2021/09/20 10:38:20;;;;;;;6.60;4.00;;;;;;;17.41;52.43;101138.06;5034146;28;20053;-80
2021/09/20 10:41:03;;;;;;;5.75;3.20;;;;;;;17.29;53.15;101149.03;5045941;28;20112;-79
2021/09/20 10:43:29;;;;;;;8.32;3.83;;;;;;;17.21;53.19;101143.91;5017180;28;20047;-79
2021/09/20 10:45:54;;;;;;;5.97;3.53;;;;;;;17.14;52.97;101141.41;5044536;28;20041;-80
2021/09/20 10:48:27;;;;;;;6.30;3.80;;;;;;;17.29;53.46;101141.03;5046778;28;20044;-80
2021/09/20 10:51:01;;;;;;;6.25;3.88;;;;;;;17.49;52.98;101137.88;5039044;28;20064;-79
2021/09/20 10:53:34;;;;;;;8.85;4.85;;;;;;;17.60;52.42;101145.59;5046665;28;20074;-79
2021/09/20 10:56:02;;;;;;;9.38;4.13;;;;;;;17.68;52.92;101140.94;5021112;28;20407;-79
2021/09/20 10:58:32;;;;;;;6.80;3.38;;;;;;;17.67;52.03;101144.53;5046930;28;20041;-80
2021/09/20 11:01:16;;;;;;;5.53;3.63;;;;;;;17.63;52.39;101135.75;5021938;28;20041;-80
2021/09/20 11:03:50;;;;;;;5.72;3.30;;;;;;;17.71;52.28;101143.53;5042323;28;20037;-81
2021/09/20 11:06:22;;;;;;;6.82;3.38;;;;;;;17.65;51.70;101143.69;5046932;28;20095;-81
2021/09/20 11:09:07;;;;;;;6.60;2.95;;;;;;;17.42;51.76;101142.50;5038289;28;20116;-81
2021/09/20 11:11:42;;;;;;;4.53;3.15;;;;;;;17.21;51.57;101148.34;5042177;28;20068;-80
2021/09/20 11:14:38;;;;;;;7.13;2.90;;;;;;;17.08;51.88;101147.75;5047561;28;20041;-80
2021/09/20 11:17:28;;;;;;;5.22;3.13;;;;;;;17.13;52.10;101147.63;5014331;28;20492;-80
2021/09/20 11:20:00;;;;;;;6.13;3.25;;;;;;;17.50;51.70;101140.50;5031533;28;20131;-80
2021/09/20 11:22:28;;;;;;;5.82;3.28;;;;;;;17.63;52.29;101143.75;5032666;28;20041;-80
2021/09/20 11:25:06;;;;;;;5.07;3.00;;;;;;;17.99;51.39;101143.72;5044612;28;20468;-80